createdAt,value
2018-06-20T00:00:57.925Z,97649.00
2018-06-20T00:03:30.874Z,97650.00
2018-06-20T00:06:08.199Z,97650.00
2018-06-20T00:08:57.167Z,97651.00
2018-06-20T00:11:30.023Z,97651.00
2018-06-20T00:14:01.614Z,97649.00
2018-06-20T00:16:39.333Z,97645.00
2018-06-20T00:19:24.103Z,97642.00
2018-06-20T00:21:57.595Z,97644.00
2018-06-20T00:24:34.129Z,97640.00
2018-06-20T00:27:04.595Z,97642.00
2018-06-20T00:29:35.399Z,97636.00
2018-06-20T00:32:06.908Z,97632.00
2018-06-20T00:34:37.483Z,97631.00
2018-06-20T00:37:08.552Z,97630.00
2018-06-20T00:39:40.084Z,97628.00
2018-06-20T00:42:16.465Z,97624.00
2018-06-20T00:44:57.419Z,97619.00
2018-06-20T00:47:34.737Z,97618.00
2018-06-20T00:50:10.978Z,97615.00
2018-06-20T00:52:54.587Z,97617.00
2018-06-20T00:55:42.538Z,97610.00
2018-06-20T00:58:22.725Z,97611.00
2018-06-20T01:01:03.754Z,97612.00
2018-06-20T01:03:36.219Z,97609.00
2018-06-20T01:06:07.386Z,97612.00
2018-06-20T01:08:39.627Z,97612.00
2018-06-20T01:11:12.539Z,97607.00
2018-06-20T01:13:43.401Z,97610.00
2018-06-20T01:16:21.020Z,97610.00
2018-06-20T01:19:03.526Z,97613.00
2018-06-20T01:21:38.914Z,97612.00
2018-06-20T01:24:13.410Z,97610.00
2018-06-20T01:26:56.879Z,97610.00
2018-06-20T01:29:32.666Z,97607.00
2018-06-20T01:32:05.105Z,97603.00
2018-06-20T01:34:43.154Z,97606.00
2018-06-20T01:37:20.002Z,97609.00
2018-06-20T01:39:52.595Z,97608.00
2018-06-20T01:42:24.060Z,97608.00
2018-06-20T01:44:57.842Z,97602.00
2018-06-20T01:47:28.386Z,97597.00
2018-06-20T01:50:06.596Z,97597.00
2018-06-20T01:52:38.215Z,97595.00
2018-06-20T01:55:13.478Z,97598.00
2018-06-20T01:58:04.105Z,97600.00
2018-06-20T02:03:30.198Z,97599.00
2018-06-20T02:06:12.953Z,97598.00
2018-06-20T02:08:46.729Z,97606.00
2018-06-20T02:11:23.383Z,97601.00
2018-06-20T02:13:54.954Z,97595.00
2018-06-20T02:16:31.685Z,97599.00
2018-06-20T02:19:09.019Z,97597.00
2018-06-20T02:21:42.078Z,97598.00
2018-06-20T02:24:22.350Z,97596.00
2018-06-20T02:26:54.975Z,97600.00
2018-06-20T02:29:29.255Z,97596.00
2018-06-20T02:32:23.437Z,97599.00
2018-06-20T02:34:56.015Z,97598.00
2018-06-20T02:37:26.686Z,97599.00
2018-06-20T02:39:59.227Z,97599.00
2018-06-20T02:42:37.562Z,97596.00
2018-06-20T02:45:12.465Z,97597.00
2018-06-20T02:47:44.160Z,97597.00
2018-06-20T02:50:17.792Z,97592.00
2018-06-20T02:52:54.533Z,97599.00
2018-06-20T02:55:26.688Z,97590.00
2018-06-20T02:58:08.063Z,97592.00
2018-06-20T03:00:42.191Z,97583.00
2018-06-20T03:03:24.726Z,97584.00
2018-06-20T03:06:01.713Z,97587.00
2018-06-20T03:08:39.076Z,97585.00
2018-06-20T03:11:09.576Z,97584.00
2018-06-20T03:13:40.041Z,97582.00
2018-06-20T03:16:14.002Z,97578.00
2018-06-20T03:18:46.250Z,97577.00
2018-06-20T03:21:17.133Z,97578.00
2018-06-20T03:23:48.812Z,97578.00
2018-06-20T03:26:19.609Z,97573.00
2018-06-20T03:28:49.968Z,97581.00
2018-06-20T03:31:27.230Z,97575.00
2018-06-20T03:34:07.213Z,97576.00
2018-06-20T03:36:42.831Z,97576.00
2018-06-20T03:39:14.791Z,97581.00
2018-06-20T03:42:09.579Z,97572.00
2018-06-20T03:44:41.130Z,97579.00
2018-06-20T03:47:12.671Z,97583.00
2018-06-20T03:49:43.186Z,97585.00
2018-06-20T03:52:19.356Z,97584.00
2018-06-20T03:54:55.398Z,97586.00
2018-06-20T03:57:30.685Z,97584.00
2018-06-20T04:00:05.344Z,97584.00
2018-06-20T04:02:36.042Z,97588.00
2018-06-20T04:05:13.346Z,97593.00
2018-06-20T04:08:08.630Z,97588.00
2018-06-20T04:10:40.828Z,97592.00
2018-06-20T04:13:13.892Z,97595.00
2018-06-20T04:15:51.036Z,97590.00
2018-06-20T04:18:38.415Z,97593.00
2018-06-20T04:21:12.470Z,97598.00
2018-06-20T04:23:53.115Z,97598.00
2018-06-20T04:26:39.920Z,97594.00
2018-06-20T04:29:13.681Z,97592.00
2018-06-20T04:32:03.314Z,97596.00
2018-06-20T04:34:39.650Z,97588.00
2018-06-20T04:37:21.964Z,97592.00
2018-06-20T04:39:52.569Z,97593.00
2018-06-20T04:42:26.942Z,97589.00
2018-06-20T04:45:00.482Z,97586.00
2018-06-20T04:47:34.748Z,97583.00
2018-06-20T04:50:23.215Z,97584.00
2018-06-20T04:52:53.912Z,97585.00
2018-06-20T04:55:33.655Z,97584.00
2018-06-20T04:58:13.916Z,97584.00
2018-06-20T05:00:49.830Z,97585.00
2018-06-20T05:03:44.791Z,97580.00
2018-06-20T05:06:16.743Z,97586.00
2018-06-20T05:08:53.527Z,97583.00
2018-06-20T05:11:25.943Z,97586.00
2018-06-20T05:14:07.386Z,97581.00
2018-06-20T05:16:44.223Z,97588.00
2018-06-20T05:19:24.408Z,97587.00
2018-06-20T05:22:01.163Z,97589.00
2018-06-20T05:24:41.960Z,97585.00
2018-06-20T05:27:22.226Z,97576.00
2018-06-20T05:29:59.435Z,97578.00
2018-06-20T05:32:33.594Z,97577.00
2018-06-20T05:35:07.837Z,97581.00
2018-06-20T05:37:40.436Z,97574.00
2018-06-20T05:40:10.991Z,97580.00
2018-06-20T05:42:41.538Z,97573.00
2018-06-20T05:48:25.163Z,97572.00
2018-06-20T05:50:59.859Z,97567.00
2018-06-20T05:53:32.282Z,97571.00
2018-06-20T05:56:09.117Z,97571.00
2018-06-20T05:58:55.689Z,97569.00
2018-06-20T06:01:38.150Z,97562.00
2018-06-20T06:04:14.350Z,97566.00
2018-06-20T06:06:51.920Z,97560.00
2018-06-20T06:09:23.246Z,97557.00
2018-06-20T06:11:57.899Z,97562.00
2018-06-20T06:14:29.411Z,97562.00
2018-06-20T06:17:12.670Z,97561.00
2018-06-20T06:19:54.735Z,97561.00
2018-06-20T06:22:25.383Z,97557.00
2018-06-20T06:25:00.267Z,97552.00
2018-06-20T06:27:30.773Z,97554.00
2018-06-20T06:30:01.639Z,97552.00
2018-06-20T06:32:33.219Z,97546.00
2018-06-20T06:35:07.510Z,97541.00
2018-06-20T06:37:38.397Z,97550.00
2018-06-20T06:40:09.840Z,97542.00
2018-06-20T06:42:40.790Z,97547.00
2018-06-20T06:45:11.358Z,97539.00
2018-06-20T06:47:42.946Z,97543.00
2018-06-20T06:50:16.863Z,97540.00
2018-06-20T06:52:49.327Z,97540.00
2018-06-20T06:55:30.426Z,97538.00
2018-06-20T06:58:06.045Z,97537.00
2018-06-20T07:00:36.451Z,97541.00
2018-06-20T07:03:10.495Z,97543.00
2018-06-20T07:05:41.183Z,97540.00
2018-06-20T07:08:13.949Z,97536.00
2018-06-20T07:10:51.732Z,97534.00
2018-06-20T07:13:24.411Z,97538.00
2018-06-20T07:15:54.733Z,97538.00
2018-06-20T07:18:25.124Z,97534.00
2018-06-20T07:20:56.733Z,97531.00
2018-06-20T07:23:27.329Z,97532.00
2018-06-20T07:26:08.160Z,97531.00
2018-06-20T07:28:44.986Z,97535.00
2018-06-20T07:31:19.896Z,97533.00
2018-06-20T07:33:56.761Z,97534.00
2018-06-20T07:36:38.850Z,97528.00
2018-06-20T07:39:09.602Z,97531.00
2018-06-20T07:41:54.877Z,97521.00
2018-06-20T07:44:33.691Z,97525.00
2018-06-20T07:47:05.321Z,97524.00
2018-06-20T07:49:41.711Z,97513.00
2018-06-20T07:52:25.057Z,97515.00
2018-06-20T07:55:06.032Z,97514.00
2018-06-20T07:57:42.358Z,97509.00
2018-06-20T08:00:17.646Z,97512.00
2018-06-20T08:03:09.590Z,97510.00
2018-06-20T08:05:49.531Z,97509.00
2018-06-20T08:08:25.236Z,97509.00
2018-06-20T08:11:01.773Z,97507.00
2018-06-20T08:13:38.830Z,97509.00
2018-06-20T08:16:25.231Z,97501.00
2018-06-20T08:19:13.968Z,97500.00
2018-06-20T08:21:55.156Z,97503.00
2018-06-20T08:24:26.987Z,97504.00
2018-06-20T08:27:06.893Z,97496.00
2018-06-20T08:29:37.731Z,97498.00
2018-06-20T08:32:07.626Z,97503.00
2018-06-20T08:34:39.217Z,97498.00
2018-06-20T08:37:13.378Z,97502.00
2018-06-20T08:39:45.207Z,97503.00
2018-06-20T08:42:20.544Z,97496.00
2018-06-20T08:44:56.685Z,97487.00
2018-06-20T08:47:33.167Z,97494.00
2018-06-20T08:50:04.592Z,97488.00
2018-06-20T08:52:41.241Z,97488.00
2018-06-20T08:55:11.836Z,97492.00
2018-06-20T08:57:44.562Z,97490.00
2018-06-20T09:00:20.963Z,97489.00
2018-06-20T09:02:50.955Z,97495.00
2018-06-20T09:05:32.591Z,97478.00
2018-06-20T09:08:11.262Z,97485.00
2018-06-20T09:10:58.621Z,97480.00
2018-06-20T09:13:43.258Z,97476.00
2018-06-20T09:16:28.148Z,97478.00
2018-06-20T09:19:07.231Z,97473.00
2018-06-20T09:21:39.476Z,97479.00
2018-06-20T09:24:12.026Z,97472.00
2018-06-20T09:26:45.873Z,97472.00
2018-06-20T09:29:34.788Z,97473.00
2018-06-20T09:32:05.231Z,97466.00
2018-06-20T09:34:41.435Z,97466.00
2018-06-20T09:37:15.646Z,97466.00
2018-06-20T09:39:49.235Z,97466.00
2018-06-20T09:42:21.003Z,97463.00
2018-06-20T09:44:59.616Z,97464.00
2018-06-20T09:47:33.546Z,97467.00
2018-06-20T09:50:21.734Z,97467.00
2018-06-20T09:53:06.746Z,97468.00
2018-06-20T09:55:37.703Z,97466.00
2018-06-20T09:58:20.382Z,97458.00
2018-06-20T10:00:58.091Z,97460.00
2018-06-20T10:03:35.684Z,97455.00
2018-06-20T10:06:18.630Z,97465.00
2018-06-20T10:09:04.840Z,97456.00
2018-06-20T10:11:42.356Z,97465.00
2018-06-20T10:14:16.521Z,97454.00
2018-06-20T10:16:47.996Z,97453.00
2018-06-20T10:19:27.765Z,97454.00
2018-06-20T10:22:04.338Z,97453.00
2018-06-20T10:24:46.233Z,97451.00
2018-06-20T10:27:18.793Z,97453.00
2018-06-20T10:29:58.981Z,97453.00
2018-06-20T10:32:32.306Z,97449.00
2018-06-20T10:35:32.598Z,97449.00
2018-06-20T10:38:03.307Z,97446.00
2018-06-20T10:40:33.866Z,97441.00
2018-06-20T10:43:04.291Z,97434.00
2018-06-20T10:45:39.646Z,97439.00
2018-06-20T10:48:16.766Z,97439.00
2018-06-20T10:50:52.142Z,97433.00
2018-06-20T10:53:27.084Z,97432.00
2018-06-20T10:56:18.495Z,97429.00
2018-06-20T10:59:06.627Z,97430.00
2018-06-20T11:01:50.173Z,97426.00
2018-06-20T11:04:29.214Z,97434.00
2018-06-20T11:07:06.407Z,97425.00
2018-06-20T11:09:43.321Z,97422.00
2018-06-20T11:12:19.090Z,97423.00
2018-06-20T11:14:49.774Z,97419.00
2018-06-20T11:17:27.599Z,97418.00
2018-06-20T11:20:14.448Z,97416.00
2018-06-20T11:25:48.428Z,97418.00
2018-06-20T11:28:22.854Z,97405.00
2018-06-20T11:30:59.299Z,97401.00
2018-06-20T11:33:42.061Z,97405.00
2018-06-20T11:36:30.248Z,97395.00
2018-06-20T11:39:11.713Z,97396.00
2018-06-20T11:41:48.835Z,97394.00
2018-06-20T11:44:22.971Z,97390.00
2018-06-20T11:47:05.183Z,97389.00
2018-06-20T11:49:39.400Z,97392.00
2018-06-20T11:52:17.166Z,97386.00
2018-06-20T11:55:11.491Z,97385.00
2018-06-20T11:57:49.922Z,97382.00
2018-06-20T12:00:31.031Z,97387.00
2018-06-20T12:03:12.149Z,97379.00
2018-06-20T12:05:53.954Z,97379.00
2018-06-20T12:08:32.075Z,97378.00
2018-06-20T12:11:26.229Z,97381.00
2018-06-20T12:14:05.666Z,97377.00
2018-06-20T12:16:37.255Z,97378.00
2018-06-20T12:19:13.716Z,97366.00
2018-06-20T12:21:49.719Z,97367.00
2018-06-20T12:24:31.254Z,97367.00
2018-06-20T12:27:24.593Z,97365.00
2018-06-20T12:30:01.447Z,97362.00
2018-06-20T12:32:37.090Z,97361.00
2018-06-20T12:35:13.283Z,97362.00
2018-06-20T12:37:51.162Z,97366.00
2018-06-20T12:40:27.449Z,97363.00
2018-06-20T12:43:09.522Z,97354.00
2018-06-20T12:45:41.385Z,97352.00
2018-06-20T12:48:14.084Z,97351.00
2018-06-20T12:50:45.422Z,97344.00
2018-06-20T12:53:16.815Z,97338.00
2018-06-20T12:55:47.397Z,97342.00
2018-06-20T12:58:19.020Z,97341.00
2018-06-20T13:00:49.839Z,97336.00
2018-06-20T13:03:22.886Z,97343.00
2018-06-20T13:05:54.472Z,97336.00
2018-06-20T13:08:25.190Z,97333.00
2018-06-20T13:10:56.454Z,97339.00
2018-06-20T13:13:27.168Z,97334.00
2018-06-20T13:15:59.778Z,97332.00
2018-06-20T13:18:31.613Z,97328.00
2018-06-20T13:21:02.926Z,97325.00
2018-06-20T13:23:36.955Z,97326.00
2018-06-20T13:26:07.557Z,97330.00
2018-06-20T13:28:41.442Z,97330.00
2018-06-20T13:31:18.268Z,97329.00
2018-06-20T13:33:57.878Z,97325.00
2018-06-20T13:37:03.678Z,97322.00
2018-06-20T13:39:49.015Z,97319.00
2018-06-20T13:42:43.035Z,97308.00
2018-06-20T13:45:28.830Z,97308.00
2018-06-20T13:48:32.192Z,97307.00
2018-06-20T13:51:07.263Z,97305.00
2018-06-20T13:53:46.563Z,97311.00
2018-06-20T13:56:23.565Z,97303.00
2018-06-20T13:58:56.474Z,97302.00
2018-06-20T14:02:01.539Z,97294.00
2018-06-20T14:04:34.681Z,97298.00
2018-06-20T14:07:12.251Z,97295.00
2018-06-20T14:10:05.886Z,97294.00
2018-06-20T14:12:52.787Z,97291.00
2018-06-20T14:16:48.557Z,97288.00
2018-06-20T14:19:40.734Z,97293.00
2018-06-20T14:22:28.761Z,97288.00
2018-06-20T14:25:08.315Z,97285.00
2018-06-20T14:27:40.330Z,97276.00
2018-06-20T14:30:47.758Z,97273.00
2018-06-20T14:33:27.853Z,97269.00
2018-06-20T14:36:13.573Z,97265.00
2018-06-20T14:38:57.511Z,97268.00
2018-06-20T14:42:10.702Z,97258.00
2018-06-20T14:44:42.233Z,97265.00
2018-06-20T14:47:18.179Z,97258.00
2018-06-20T14:49:53.814Z,97258.00
2018-06-20T14:52:26.346Z,97252.00
2018-06-20T14:55:10.209Z,97253.00
2018-06-20T14:57:44.803Z,97252.00
2018-06-20T15:00:26.032Z,97253.00
2018-06-20T15:02:59.935Z,97246.00
2018-06-20T15:05:37.528Z,97247.00
2018-06-20T15:08:13.251Z,97245.00
2018-06-20T15:10:55.546Z,97249.00
2018-06-20T15:13:41.893Z,97241.00
2018-06-20T15:16:42.264Z,97234.00
2018-06-20T15:19:13.317Z,97243.00
2018-06-20T15:21:46.262Z,97241.00
2018-06-20T15:24:17.511Z,97241.00
2018-06-20T15:27:04.856Z,97236.00
2018-06-20T15:29:51.427Z,97221.00
2018-06-20T15:32:35.344Z,97224.00
2018-06-20T15:35:11.702Z,97221.00
2018-06-20T15:37:58.801Z,97216.00
2018-06-20T15:40:36.323Z,97207.00
2018-06-20T15:43:08.558Z,97207.00
2018-06-20T15:45:49.227Z,97201.00
2018-06-20T15:48:25.072Z,97201.00
2018-06-20T15:50:59.236Z,97198.00
2018-06-20T15:53:32.957Z,97199.00
2018-06-20T15:56:03.625Z,97198.00
2018-06-20T15:58:35.346Z,97196.00
2018-06-20T16:01:12.889Z,97189.00
2018-06-20T16:03:44.117Z,97185.00
2018-06-20T16:06:18.247Z,97189.00
2018-06-20T16:08:59.026Z,97186.00
2018-06-20T16:12:00.115Z,97180.00
2018-06-20T16:14:36.355Z,97181.00
2018-06-20T16:17:11.785Z,97188.00
2018-06-20T16:19:49.162Z,97189.00
2018-06-20T16:22:25.857Z,97188.00
2018-06-20T16:25:00.901Z,97180.00
2018-06-20T16:27:36.880Z,97175.00
2018-06-20T16:30:12.335Z,97167.00
2018-06-20T16:32:42.527Z,97175.00
2018-06-20T16:35:29.363Z,97165.00
2018-06-20T16:38:06.466Z,97168.00
2018-06-20T16:40:46.404Z,97163.00
2018-06-20T16:43:22.388Z,97162.00
2018-06-20T16:45:57.661Z,97163.00
2018-06-20T16:48:34.565Z,97166.00
2018-06-20T16:51:08.577Z,97166.00
2018-06-20T16:53:41.809Z,97161.00
2018-06-20T16:56:19.158Z,97155.00
2018-06-20T16:58:59.941Z,97158.00
2018-06-20T17:01:42.110Z,97158.00
2018-06-20T17:04:13.515Z,97155.00
2018-06-20T17:06:45.580Z,97156.00
2018-06-20T17:09:18.054Z,97157.00
2018-06-20T17:11:53.503Z,97165.00
2018-06-20T17:14:32.610Z,97164.00
2018-06-20T17:17:11.381Z,97163.00
2018-06-20T17:19:47.546Z,97160.00
2018-06-20T17:22:25.094Z,97152.00
2018-06-20T17:25:02.037Z,97151.00
2018-06-20T17:27:39.894Z,97154.00
2018-06-20T17:30:15.334Z,97156.00
2018-06-20T17:32:47.471Z,97152.00
2018-06-20T17:35:21.180Z,97160.00
2018-06-20T17:38:02.681Z,97164.00
2018-06-20T17:40:42.460Z,97160.00
2018-06-20T17:43:33.509Z,97156.00
2018-06-20T17:46:04.808Z,97158.00
2018-06-20T17:48:43.044Z,97159.00
2018-06-20T17:51:16.965Z,97160.00
2018-06-20T17:53:49.474Z,97160.00
2018-06-20T17:56:23.116Z,97157.00
2018-06-20T17:58:57.036Z,97159.00
2018-06-20T18:01:28.693Z,97156.00
2018-06-20T18:04:00.371Z,97152.00
2018-06-20T18:06:38.116Z,97156.00
2018-06-20T18:09:17.099Z,97157.00
2018-06-20T18:11:55.773Z,97157.00
2018-06-20T18:14:31.461Z,97155.00
2018-06-20T18:17:09.161Z,97150.00
2018-06-20T18:19:39.265Z,97152.00
2018-06-20T18:22:13.037Z,97151.00
2018-06-20T18:24:49.292Z,97148.00
2018-06-20T18:27:26.432Z,97154.00
2018-06-20T18:29:57.172Z,97155.00
2018-06-20T18:32:36.394Z,97157.00
2018-06-20T18:35:12.985Z,97156.00
2018-06-20T18:37:58.869Z,97156.00
2018-06-20T18:40:33.331Z,97159.00
2018-06-20T18:43:04.622Z,97163.00
2018-06-20T18:46:00.880Z,97165.00
2018-06-20T18:48:34.947Z,97157.00
2018-06-20T18:51:07.191Z,97160.00
2018-06-20T18:53:43.994Z,97155.00
2018-06-20T18:56:27.090Z,97161.00
2018-06-20T19:00:09.057Z,97162.00
2018-06-20T19:03:03.047Z,97164.00
2018-06-20T19:06:16.216Z,97172.00
2018-06-20T19:08:51.570Z,97162.00
2018-06-20T19:12:22.088Z,97165.00
2018-06-20T19:15:02.583Z,97167.00
2018-06-20T19:17:59.971Z,97166.00
2018-06-20T19:20:36.173Z,97176.00
2018-06-20T19:23:11.367Z,97177.00
2018-06-20T19:25:55.044Z,97186.00
2018-06-20T19:28:33.092Z,97183.00
2018-06-20T19:31:06.043Z,97182.00
2018-06-20T19:33:45.736Z,97186.00
2018-06-20T19:36:26.522Z,97193.00
2018-06-20T19:39:00.608Z,97197.00
2018-06-20T19:41:37.826Z,97196.00
2018-06-20T19:44:29.644Z,97202.00
2018-06-20T19:47:01.180Z,97200.00
2018-06-20T19:49:36.138Z,97203.00
2018-06-20T19:52:08.722Z,97204.00
2018-06-20T19:54:46.032Z,97207.00
2018-06-20T19:57:17.947Z,97210.00
2018-06-20T19:59:49.406Z,97214.00
2018-06-20T20:02:29.686Z,97211.00
2018-06-20T20:05:07.398Z,97217.00
2018-06-20T20:07:54.870Z,97214.00
2018-06-20T20:10:38.018Z,97225.00
2018-06-20T20:13:11.731Z,97227.00
2018-06-20T20:15:52.880Z,97226.00
2018-06-20T20:18:39.477Z,97226.00
2018-06-20T20:21:18.005Z,97231.00
2018-06-20T20:24:04.115Z,97233.00
2018-06-20T20:26:35.607Z,97234.00
2018-06-20T20:29:23.798Z,97233.00
2018-06-20T20:31:59.419Z,97231.00
2018-06-20T20:34:43.087Z,97238.00
2018-06-20T20:37:17.096Z,97239.00
2018-06-20T20:39:47.958Z,97239.00
2018-06-20T20:42:30.044Z,97239.00
2018-06-20T20:45:02.459Z,97235.00
2018-06-20T20:47:45.859Z,97237.00
2018-06-20T20:50:30.609Z,97239.00
2018-06-20T20:53:12.353Z,97238.00
2018-06-20T20:55:46.915Z,97240.00
2018-06-20T20:58:22.631Z,97239.00
2018-06-20T21:00:53.397Z,97239.00
2018-06-20T21:03:30.250Z,97241.00
2018-06-20T21:06:01.156Z,97235.00
2018-06-20T21:08:42.083Z,97237.00
2018-06-20T21:11:14.451Z,97234.00
2018-06-20T21:13:46.430Z,97237.00
2018-06-20T21:16:18.153Z,97240.00
2018-06-20T21:18:49.086Z,97239.00
2018-06-20T21:21:20.160Z,97240.00
2018-06-20T21:23:52.811Z,97242.00
2018-06-20T21:26:23.446Z,97242.00
2018-06-20T21:29:04.695Z,97238.00
2018-06-20T21:32:00.122Z,97238.00
2018-06-20T21:34:37.079Z,97237.00
2018-06-20T21:37:10.130Z,97245.00
2018-06-20T21:39:48.920Z,97240.00
2018-06-20T21:42:28.653Z,97240.00
2018-06-20T21:45:11.710Z,97240.00
2018-06-20T21:47:51.007Z,97240.00
2018-06-20T21:50:23.722Z,97240.00
2018-06-20T21:52:59.547Z,97242.00
2018-06-20T21:55:49.556Z,97240.00
2018-06-20T21:58:37.022Z,97241.00
2018-06-20T22:01:32.077Z,97239.00
2018-06-20T22:04:21.150Z,97237.00
2018-06-20T22:06:51.649Z,97232.00
2018-06-20T22:09:24.165Z,97232.00
2018-06-20T22:11:58.039Z,97231.00
2018-06-20T22:14:35.982Z,97234.00
2018-06-20T22:17:06.748Z,97229.00
2018-06-20T22:19:40.357Z,97234.00
2018-06-20T22:22:11.835Z,97230.00
2018-06-20T22:24:43.722Z,97228.00
2018-06-20T22:27:26.047Z,97225.00
2018-06-20T22:30:09.043Z,97225.00
2018-06-20T22:32:40.489Z,97223.00
2018-06-20T22:35:14.772Z,97219.00
2018-06-20T22:37:46.453Z,97219.00
2018-06-20T22:40:22.683Z,97219.00
2018-06-20T22:43:06.348Z,97214.00
2018-06-20T22:45:42.679Z,97217.00
2018-06-20T22:48:17.244Z,97213.00
2018-06-20T22:50:55.182Z,97214.00
2018-06-20T22:53:29.463Z,97211.00
2018-06-20T22:55:59.893Z,97210.00
2018-06-20T22:58:36.731Z,97209.00
2018-06-20T23:01:13.147Z,97207.00
2018-06-20T23:03:44.548Z,97207.00
2018-06-20T23:06:15.099Z,97207.00
2018-06-20T23:08:47.719Z,97204.00
2018-06-20T23:11:26.503Z,97199.00
2018-06-20T23:14:04.146Z,97203.00
2018-06-20T23:16:40.971Z,97204.00
2018-06-20T23:19:21.311Z,97205.00
2018-06-20T23:21:52.368Z,97199.00
2018-06-20T23:24:23.750Z,97194.00
2018-06-20T23:26:54.348Z,97194.00
2018-06-20T23:29:34.453Z,97190.00
2018-06-20T23:32:10.260Z,97191.00
2018-06-20T23:34:42.592Z,97195.00
2018-06-20T23:37:13.002Z,97194.00
2018-06-20T23:39:45.481Z,97193.00
2018-06-20T23:42:17.292Z,97194.00
2018-06-20T23:44:47.757Z,97192.00
2018-06-20T23:47:18.381Z,97191.00
2018-06-20T23:49:49.556Z,97185.00
2018-06-20T23:52:21.025Z,97182.00
2018-06-20T23:54:59.903Z,97179.00
2018-06-20T23:57:30.413Z,97180.00
